Wetterdaten: Woche 15.06.09 - 21.06.09 (KW25)
Datum Zeit Temp. A. Feuchte A. Luftdruck Regen Wind Richtung Taupunkt Windchill Windben
15.06.2009 00:00 19,9 C 66 % 1017,0 hPa 0,0 l/m 1,0 km/h S 13,3 C 19,9 C 6,8 km/h
15.06.2009 01:00 20,2 C 63 % 1016,8 hPa 0,0 l/m 1,5 km/h S-SW 12,9 C 20,2 C 8,9 km/h
15.06.2009 02:00 20,5 C 62 % 1016,7 hPa 0,0 l/m 0,7 km/h S-SW 12,8 C 20,5 C 5,6 km/h
15.06.2009 03:00 19,8 C 65 % 1016,5 hPa 0,0 l/m 0,9 km/h S 13,0 C 19,8 C 4,8 km/h
15.06.2009 04:00 22,0 C 55 % 1016,2 hPa 0,0 l/m 1,0 km/h N-NO 12,5 C 22,0 C 7,6 km/h
15.06.2009 05:00 23,0 C 51 % 1016,5 hPa 0,0 l/m 2,4 km/h W 12,3 C 23,0 C 10,9 km/h
15.06.2009 06:00 22,4 C 55 % 1016,8 hPa 0,0 l/m 5,3 km/h S-SW 12,9 C 22,4 C 17,7 km/h
15.06.2009 07:00 21,4 C 62 % 1017,8 hPa 0,0 l/m 1,6 km/h SW 13,8 C 21,4 C 4,8 km/h
15.06.2009 08:00 18,8 C 79 % 1018,8 hPa 0,6 l/m 1,1 km/h S-SW 15,1 C 18,8 C 3,2 km/h
15.06.2009 09:00 19,5 C 78 % 1018,6 hPa 0,0 l/m 2,1 km/h SW 15,5 C 19,5 C 8,0 km/h
15.06.2009 10:00 20,9 C 74 % 1018,5 hPa 0,0 l/m 3,6 km/h SW 16,0 C 20,9 C 12,1 km/h
15.06.2009 11:00 22,0 C 68 % 1018,1 hPa 0,0 l/m 1,7 km/h S-SW 15,9 C 22,0 C 7,3 km/h
15.06.2009 12:00 22,2 C 68 % 1018,3 hPa 0,0 l/m 0,5 km/h S-SW 15,9 C 22,2 C 5,6 km/h
15.06.2009 13:00 23,2 C 64 % 1017,6 hPa 0,0 l/m 0,9 km/h S 16,0 C 23,2 C 5,6 km/h
15.06.2009 14:00 25,6 C 58 % 1016,7 hPa 0,0 l/m 1,5 km/h S 16,7 C 25,6 C 8,4 km/h
15.06.2009 15:00 26,3 C 55 % 1015,9 hPa 0,0 l/m 1,3 km/h S 16,4 C 26,3 C 6,0 km/h
15.06.2009 16:00 26,3 C 58 % 1015,0 hPa 0,0 l/m 1,7 km/h SW 17,2 C 26,3 C 9,7 km/h
15.06.2009 17:00 26,5 C 49 % 1014,3 hPa 0,0 l/m 4,7 km/h S-SO 14,9 C 26,5 C 17,3 km/h
15.06.2009 18:00 25,4 C 54 % 1014,0 hPa 0,0 l/m 1,1 km/h S-SW 15,3 C 25,4 C 7,2 km/h
15.06.2009 19:00 25,1 C 58 % 1012,9 hPa 0,0 l/m 1,4 km/h S-SW 16,3 C 25,1 C 8,1 km/h
15.06.2009 20:00 24,2 C 63 % 1012,3 hPa 0,0 l/m 0,9 km/h S 16,6 C 24,2 C 7,6 km/h
15.06.2009 21:00 22,3 C 71 % 1012,0 hPa 0,0 l/m 0,1 km/h N 16,8 C 22,3 C 1,6 km/h
15.06.2009 22:00 21,0 C 76 % 1011,5 hPa 0,0 l/m 0,2 km/h N 16,7 C 21,0 C 3,2 km/h
15.06.2009 23:00 20,4 C 79 % 1011,0 hPa 0,0 l/m 0,2 km/h N 16,6 C 20,4 C 3,2 km/h
16.06.2009 00:00 18,6 C 84 % 1010,8 hPa 0,0 l/m 0,0 km/h N 15,8 C 18,6 C 1,2 km/h
16.06.2009 01:00 19,6 C 80 % 1010,9 hPa 0,0 l/m 0,9 km/h SW 16,1 C 19,6 C 6,9 km/h
16.06.2009 02:00 21,3 C 70 % 1011,2 hPa 0,0 l/m 7,0 km/h NW 15,6 C 21,0 C 18,1 km/h
16.06.2009 03:00 20,7 C 72 % 1011,9 hPa 0,0 l/m 2,7 km/h NW 15,5 C 20,7 C 8,1 km/h
16.06.2009 04:00 21,9 C 66 % 1011,7 hPa 0,0 l/m 5,8 km/h W-SW 15,2 C 21,8 C 25,0 km/h
16.06.2009 05:00 21,4 C 64 % 1012,2 hPa 0,0 l/m 10,5 km/h W 14,3 C 20,0 C 33,0 km/h
16.06.2009 06:00 20,5 C 64 % 1013,2 hPa 0,0 l/m 10,1 km/h W 13,5 C 19,2 C 32,2 km/h
16.06.2009 07:00 20,3 C 66 % 1014,1 hPa 0,0 l/m 9,0 km/h SO 13,7 C 19,3 C 31,0 km/h
16.06.2009 08:00 20,5 C 64 % 1014,5 hPa 0,0 l/m 7,4 km/h W-NW 13,4 C 20,1 C 26,1 km/h
16.06.2009 09:00 20,9 C 63 % 1015,3 hPa 0,0 l/m 5,0 km/h S-SW 13,5 C 20,8 C 18,5 km/h
16.06.2009 10:00 21,8 C 61 % 1016,0 hPa 0,0 l/m 4,1 km/h S-SW 14,0 C 21,8 C 16,1 km/h
16.06.2009 11:00 23,3 C 58 % 1016,7 hPa 0,0 l/m 5,9 km/h S 14,6 C 23,2 C 25,3 km/h
16.06.2009 12:00 24,4 C 54 % 1017,0 hPa 0,0 l/m 5,9 km/h W-SW 14,5 C 24,4 C 22,5 km/h
16.06.2009 13:00 24,2 C 52 % 1017,3 hPa 0,0 l/m 6,8 km/h O-SO 13,8 C 24,0 C 22,5 km/h
16.06.2009 14:00 23,9 C 52 % 1017,5 hPa 0,0 l/m 7,4 km/h S 13,4 C 23,6 C 24,9 km/h
16.06.2009 15:00 22,9 C 54 % 1017,9 hPa 0,0 l/m 6,0 km/h W-NW 13,2 C 22,9 C 22,9 km/h
16.06.2009 16:00 22,8 C 55 % 1018,3 hPa 0,0 l/m 6,3 km/h W-NW 13,2 C 22,7 C 27,0 km/h
16.06.2009 17:00 21,3 C 56 % 1018,8 hPa 0,0 l/m 4,1 km/h N-NW 12,2 C 21,3 C 16,1 km/h
16.06.2009 18:00 20,7 C 58 % 1019,1 hPa 0,0 l/m 2,9 km/h NW 12,1 C 20,7 C 11,7 km/h
16.06.2009 19:00 20,6 C 58 % 1019,3 hPa 0,0 l/m 3,3 km/h W-SW 11,9 C 20,6 C 14,5 km/h
16.06.2009 20:00 20,3 C 56 % 1020,2 hPa 0,0 l/m 3,6 km/h W-SW 11,3 C 20,3 C 18,5 km/h
16.06.2009 21:00 19,7 C 58 % 1020,8 hPa 0,0 l/m 3,3 km/h S 11,1 C 19,7 C 16,1 km/h
16.06.2009 22:00 18,7 C 60 % 1021,5 hPa 0,0 l/m 3,6 km/h S-SW 10,8 C 18,7 C 16,9 km/h
16.06.2009 23:00 18,1 C 67 % 1022,1 hPa 0,0 l/m 3,1 km/h S-SO 11,8 C 18,1 C 13,7 km/h
17.06.2009 00:00 17,0 C 71 % 1022,7 hPa 0,0 l/m 2,0 km/h NW 11,8 C 17,0 C 5,6 km/h
17.06.2009 01:00 16,1 C 72 % 1023,2 hPa 0,0 l/m 0,3 km/h N 11,0 C 16,1 C 2,0 km/h
17.06.2009 02:00 14,9 C 79 % 1023,2 hPa 0,0 l/m 0,0 km/h N 11,2 C 14,9 C 0,8 km/h
17.06.2009 03:00 14,9 C 81 % 1023,4 hPa 0,0 l/m 0,3 km/h N 11,6 C 14,9 C 4,8 km/h
17.06.2009 04:00 14,3 C 85 % 1023,8 hPa 0,0 l/m 0,0 km/h N 11,7 C 14,3 C 1,6 km/h
17.06.2009 05:00 13,7 C 85 % 1024,2 hPa 0,0 l/m 0,0 km/h N 11,1 C 13,7 C 0,4 km/h
17.06.2009 06:00 14,7 C 80 % 1024,5 hPa 0,0 l/m 0,0 km/h N 11,3 C 14,7 C 1,6 km/h
17.06.2009 07:00 16,8 C 69 % 1024,7 hPa 0,0 l/m 1,0 km/h S 11,1 C 16,8 C 5,2 km/h
17.06.2009 08:00 17,8 C 63 % 1024,8 hPa 0,0 l/m 3,4 km/h NW 10,5 C 17,8 C 9,7 km/h
17.06.2009 09:00 18,5 C 57 % 1024,8 hPa 0,0 l/m 3,6 km/h NW 9,7 C 18,5 C 10,5 km/h
17.06.2009 10:00 19,7 C 53 % 1024,3 hPa 0,0 l/m 3,4 km/h N-NW 9,9 C 19,7 C 9,7 km/h
17.06.2009 11:00 21,6 C 50 % 1023,8 hPa 0,0 l/m 3,4 km/h O-NO 10,5 C 21,6 C 12,1 km/h
17.06.2009 12:00 22,6 C 47 % 1023,4 hPa 0,0 l/m 3,8 km/h N-NO 10,6 C 22,6 C 12,1 km/h
17.06.2009 13:00 23,4 C 44 % 1022,9 hPa 0,0 l/m 3,9 km/h N 10,4 C 23,4 C 10,9 km/h
17.06.2009 14:00 23,6 C 44 % 1022,6 hPa 0,0 l/m 2,3 km/h N-NO 10,5 C 23,6 C 6,4 km/h
17.06.2009 15:00 23,3 C 45 % 1022,3 hPa 0,0 l/m 1,6 km/h O 10,6 C 23,3 C 6,8 km/h
17.06.2009 16:00 23,3 C 47 % 1022,0 hPa 0,0 l/m 1,9 km/h O 11,2 C 23,3 C 6,0 km/h
17.06.2009 17:00 23,6 C 44 % 1021,6 hPa 0,0 l/m 0,7 km/h N 10,4 C 23,6 C 3,6 km/h
17.06.2009 18:00 22,8 C 47 % 1021,1 hPa 0,0 l/m 1,0 km/h O 10,9 C 22,8 C 4,8 km/h
17.06.2009 19:00 22,3 C 48 % 1020,8 hPa 0,0 l/m 0,6 km/h N 10,7 C 22,3 C 3,2 km/h
17.06.2009 20:00 21,0 C 55 % 1021,0 hPa 0,0 l/m 0,0 km/h N 11,4 C 21,0 C 0,8 km/h
17.06.2009 21:00 17,6 C 69 % 1021,2 hPa 0,0 l/m 0,0 km/h N 11,7 C 17,6 C 0,0 km/h
17.06.2009 22:00 15,5 C 80 % 1021,1 hPa 0,0 l/m 0,0 km/h N 12,0 C 15,5 C 0,4 km/h
17.06.2009 23:00 14,6 C 83 % 1020,8 hPa 0,0 l/m 0,0 km/h N 11,7 C 14,6 C 0,4 km/h
18.06.2009 00:00 13,6 C 86 % 1020,4 hPa 0,0 l/m 0,0 km/h N 11,2 C 13,6 C 0,0 km/h
18.06.2009 01:00 12,8 C 88 % 1020,2 hPa 0,0 l/m 0,0 km/h N 10,8 C 12,8 C 0,0 km/h
18.06.2009 02:00 12,3 C 90 % 1020,0 hPa 0,0 l/m 0,0 km/h N 10,6 C 12,3 C 0,0 km/h
18.06.2009 03:00 12,2 C 90 % 1019,5 hPa 0,0 l/m 0,0 km/h N 10,6 C 12,2 C 0,4 km/h
18.06.2009 04:00 12,4 C 91 % 1019,3 hPa 0,0 l/m 0,0 km/h N 10,8 C 12,4 C 0,4 km/h
18.06.2009 05:00 12,5 C 89 % 1019,2 hPa 0,0 l/m 0,0 km/h N 10,7 C 12,5 C 0,8 km/h
18.06.2009 06:00 14,6 C 84 % 1019,2 hPa 0,0 l/m 0,0 km/h N 11,9 C 14,6 C 0,0 km/h
18.06.2009 07:00 16,8 C 78 % 1019,3 hPa 0,0 l/m 0,0 km/h N 12,9 C 16,8 C 0,4 km/h
18.06.2009 08:00 19,1 C 71 % 1019,5 hPa 0,0 l/m 0,1 km/h N 13,6 C 19,1 C 1,6 km/h
18.06.2009 09:00 20,6 C 66 % 1019,4 hPa 0,0 l/m 0,2 km/h N 14,0 C 20,6 C 2,0 km/h
18.06.2009 10:00 22,6 C 60 % 1019,2 hPa 0,0 l/m 0,4 km/h N 14,3 C 22,6 C 3,2 km/h
18.06.2009 11:00 25,9 C 45 % 1018,6 hPa 0,0 l/m 0,9 km/h NO 13,0 C 25,9 C 4,4 km/h
18.06.2009 12:00 28,2 C 37 % 1017,9 hPa 0,0 l/m 2,7 km/h SW 11,9 C 28,2 C 9,6 km/h
18.06.2009 13:00 29,9 C 32 % 1017,3 hPa 0,0 l/m 4,8 km/h S 11,2 C 29,9 C 16,9 km/h
18.06.2009 14:00 30,6 C 36 % 1016,9 hPa 0,0 l/m 5,9 km/h SW 13,6 C 30,6 C 24,1 km/h
18.06.2009 15:00 30,7 C 38 % 1016,6 hPa 0,0 l/m 7,3 km/h SW 14,6 C 30,6 C 24,6 km/h
18.06.2009 16:00 30,7 C 38 % 1016,2 hPa 0,0 l/m 6,4 km/h NW 14,6 C 30,7 C 22,5 km/h
18.06.2009 17:00 29,8 C 39 % 1015,8 hPa 0,0 l/m 5,6 km/h W-SW 14,1 C 29,8 C 25,8 km/h
18.06.2009 18:00 28,8 C 41 % 1015,3 hPa 0,0 l/m 3,8 km/h N-NW 14,2 C 28,8 C 15,3 km/h
18.06.2009 19:00 28,3 C 43 % 1014,9 hPa 0,0 l/m 2,8 km/h SW 14,5 C 28,3 C 11,7 km/h
18.06.2009 20:00 27,0 C 48 % 1015,1 hPa 0,0 l/m 0,9 km/h N 14,8 C 27,0 C 6,4 km/h
18.06.2009 21:00 24,1 C 58 % 1015,3 hPa 0,0 l/m 0,4 km/h N 15,1 C 24,1 C 3,6 km/h
18.06.2009 22:00 20,7 C 71 % 1015,5 hPa 0,0 l/m 0,0 km/h N 15,2 C 20,7 C 0,4 km/h
18.06.2009 23:00 20,5 C 71 % 1015,4 hPa 0,0 l/m 0,1 km/h N 15,0 C 20,5 C 2,0 km/h
19.06.2009 00:00 20,0 C 73 % 1015,0 hPa 0,0 l/m 0,2 km/h N 14,9 C 20,0 C 2,4 km/h
19.06.2009 01:00 19,5 C 75 % 1014,7 hPa 0,0 l/m 0,1 km/h N 14,8 C 19,5 C 2,8 km/h
19.06.2009 02:00 18,6 C 77 % 1014,3 hPa 0,0 l/m 0,1 km/h N 14,5 C 18,6 C 1,6 km/h
19.06.2009 03:00 17,3 C 82 % 1013,9 hPa 0,0 l/m 0,1 km/h N 14,2 C 17,3 C 1,6 km/h
19.06.2009 04:00 16,9 C 83 % 1013,6 hPa 0,0 l/m 0,1 km/h N 14,0 C 16,9 C 1,2 km/h
19.06.2009 05:00 16,4 C 86 % 1013,3 hPa 0,0 l/m 0,0 km/h N 14,0 C 16,4 C 0,4 km/h
19.06.2009 06:00 18,4 C 82 % 1012,9 hPa 0,0 l/m 0,0 km/h N 15,1 C 18,4 C 0,8 km/h
19.06.2009 07:00 20,4 C 76 % 1012,8 hPa 0,0 l/m 0,0 km/h N 15,9 C 20,4 C 0,8 km/h
19.06.2009 08:00 20,4 C 78 % 1013,0 hPa 0,0 l/m 0,1 km/h N 16,5 C 20,4 C 0,8 km/h
19.06.2009 09:00 21,6 C 74 % 1013,5 hPa 0,0 l/m 0,2 km/h N 16,8 C 21,6 C 2,0 km/h
19.06.2009 10:00 23,6 C 68 % 1013,6 hPa 0,0 l/m 0,8 km/h NO 17,2 C 23,6 C 3,6 km/h
19.06.2009 11:00 26,8 C 59 % 1013,7 hPa 0,0 l/m 3,7 km/h NW 17,9 C 26,8 C 12,9 km/h
19.06.2009 12:00 26,4 C 59 % 1014,3 hPa 0,0 l/m 8,0 km/h NW 17,7 C 25,9 C 22,1 km/h
19.06.2009 13:00 23,4 C 70 % 1015,0 hPa 3,2 l/m 3,2 km/h S 17,6 C 23,4 C 13,3 km/h
19.06.2009 14:00 21,7 C 79 % 1014,9 hPa 0,0 l/m 2,4 km/h NW 17,9 C 21,7 C 6,4 km/h
19.06.2009 15:00 21,9 C 74 % 1014,5 hPa 0,0 l/m 4,1 km/h O-SO 17,0 C 21,9 C 10,1 km/h
19.06.2009 16:00 21,7 C 72 % 1014,2 hPa 0,0 l/m 3,1 km/h NW 16,5 C 21,7 C 10,5 km/h
19.06.2009 17:00 21,6 C 72 % 1013,6 hPa 0,0 l/m 3,5 km/h NW 16,4 C 21,6 C 9,3 km/h
19.06.2009 18:00 21,2 C 73 % 1013,4 hPa 0,0 l/m 3,5 km/h NW 16,1 C 21,2 C 10,1 km/h
19.06.2009 19:00 20,3 C 77 % 1013,7 hPa 0,6 l/m 3,1 km/h NW 16,1 C 20,3 C 9,2 km/h
19.06.2009 20:00 18,9 C 86 % 1014,0 hPa 1,9 l/m 2,7 km/h NW 16,5 C 18,9 C 8,0 km/h
19.06.2009 21:00 16,4 C 87 % 1015,2 hPa 3,8 l/m 6,3 km/h N-NW 14,3 C 16,1 C 16,1 km/h
19.06.2009 22:00 15,5 C 90 % 1016,1 hPa 3,8 l/m 5,1 km/h N-NW 13,8 C 15,5 C 16,5 km/h
19.06.2009 23:00 15,1 C 90 % 1017,7 hPa 8,3 l/m 4,4 km/h NW 13,4 C 15,1 C 15,3 km/h
20.06.2009 00:00 14,1 C 90 % 1018,4 hPa 2,6 l/m 5,2 km/h N-NW 12,5 C 14,1 C 16,1 km/h
20.06.2009 01:00 14,4 C 90 % 1018,0 hPa 0,0 l/m 5,7 km/h NW 12,7 C 14,5 C 14,5 km/h
20.06.2009 02:00 14,4 C 88 % 1017,9 hPa 0,0 l/m 4,8 km/h SO 12,4 C 14,4 C 11,7 km/h
20.06.2009 03:00 14,2 C 87 % 1017,3 hPa 0,0 l/m 2,3 km/h NW 12,0 C 14,2 C 8,0 km/h
20.06.2009 04:00 14,4 C 85 % 1017,1 hPa 0,0 l/m 2,1 km/h NW 11,8 C 14,4 C 8,0 km/h
20.06.2009 05:00 14,4 C 84 % 1017,3 hPa 0,0 l/m 2,8 km/h NW 11,7 C 14,4 C 9,7 km/h
20.06.2009 06:00 14,4 C 83 % 1017,8 hPa 0,0 l/m 4,4 km/h N-NW 11,6 C 14,4 C 13,7 km/h
20.06.2009 07:00 14,1 C 86 % 1018,0 hPa 0,0 l/m 4,7 km/h NW 11,7 C 14,1 C 10,9 km/h
20.06.2009 08:00 14,0 C 88 % 1018,5 hPa 0,3 l/m 3,0 km/h NW 12,1 C 14,0 C 8,4 km/h
20.06.2009 09:00 14,1 C 89 % 1018,5 hPa 0,6 l/m 2,3 km/h NW 12,2 C 14,1 C 8,0 km/h
20.06.2009 10:00 14,2 C 89 % 1018,4 hPa 0,3 l/m 1,5 km/h N-NW 12,3 C 14,2 C 7,2 km/h
20.06.2009 11:00 14,3 C 88 % 1018,5 hPa 0,3 l/m 2,8 km/h NW 12,2 C 14,3 C 8,0 km/h
20.06.2009 12:00 13,9 C 89 % 1018,8 hPa 1,6 l/m 1,3 km/h N-NW 12,2 C 13,9 C 6,4 km/h
20.06.2009 13:00 13,8 C 90 % 1018,8 hPa 1,0 l/m 1,1 km/h NW 12,1 C 13,8 C 5,6 km/h
20.06.2009 14:00 13,2 C 90 % 1018,8 hPa 1,9 l/m 1,0 km/h N-NO 11,6 C 13,2 C 4,4 km/h
20.06.2009 15:00 13,2 C 90 % 1018,5 hPa 0,3 l/m 1,3 km/h N-NW 11,6 C 13,2 C 5,2 km/h
20.06.2009 16:00 13,7 C 89 % 1018,4 hPa 0,0 l/m 0,9 km/h N-NW 11,9 C 13,7 C 4,0 km/h
20.06.2009 17:00 14,8 C 84 % 1017,9 hPa 0,0 l/m 1,0 km/h N-NW 12,1 C 14,8 C 4,8 km/h
20.06.2009 18:00 15,4 C 82 % 1017,7 hPa 0,0 l/m 1,9 km/h N-NW 12,2 C 15,4 C 6,4 km/h
20.06.2009 19:00 15,5 C 80 % 1017,5 hPa 0,0 l/m 1,7 km/h N-NW 12,0 C 15,5 C 6,0 km/h
20.06.2009 20:00 14,9 C 83 % 1017,3 hPa 0,0 l/m 1,9 km/h NW 12,0 C 14,9 C 4,8 km/h
20.06.2009 21:00 14,5 C 84 % 1017,8 hPa 0,0 l/m 1,5 km/h W-NW 11,8 C 14,5 C 5,2 km/h
20.06.2009 22:00 14,0 C 83 % 1018,2 hPa 0,0 l/m 1,2 km/h N-NW 11,2 C 14,0 C 4,8 km/h
20.06.2009 23:00 13,3 C 83 % 1018,4 hPa 0,0 l/m 0,6 km/h N 10,4 C 13,3 C 4,0 km/h
21.06.2009 00:00 12,9 C 84 % 1018,5 hPa 0,0 l/m 0,2 km/h N 10,2 C 12,9 C 2,4 km/h
21.06.2009 01:00 12,9 C 83 % 1018,4 hPa 0,0 l/m 1,3 km/h NO 10,1 C 12,9 C 5,6 km/h
21.06.2009 02:00 12,6 C 82 % 1017,8 hPa 0,0 l/m 2,6 km/h NW 9,6 C 12,6 C 7,2 km/h
21.06.2009 03:00 12,4 C 81 % 1017,4 hPa 0,0 l/m 2,3 km/h NW 9,3 C 12,4 C 8,1 km/h
21.06.2009 04:00 12,2 C 81 % 1017,4 hPa 0,0 l/m 1,9 km/h NW 9,0 C 12,2 C 6,8 km/h
21.06.2009 05:00 12,1 C 80 % 1017,3 hPa 0,0 l/m 1,9 km/h NW 8,8 C 12,1 C 7,2 km/h
21.06.2009 06:00 12,7 C 79 % 1017,3 hPa 0,0 l/m 2,7 km/h SW 9,1 C 12,7 C 7,6 km/h
21.06.2009 07:00 13,6 C 77 % 1017,4 hPa 0,0 l/m 3,4 km/h N-NW 9,5 C 13,6 C 12,1 km/h
21.06.2009 08:00 14,5 C 75 % 1017,3 hPa 0,0 l/m 4,1 km/h NO 10,2 C 14,5 C 14,5 km/h
21.06.2009 09:00 15,8 C 70 % 1017,3 hPa 0,0 l/m 5,8 km/h N-NO 10,3 C 15,6 C 14,5 km/h
21.06.2009 10:00 17,0 C 61 % 1017,4 hPa 0,0 l/m 6,0 km/h N 9,3 C 17,0 C 14,9 km/h
21.06.2009 11:00 18,4 C 55 % 1017,1 hPa 0,0 l/m 6,5 km/h NO 9,1 C 18,2 C 17,7 km/h
21.06.2009 12:00 19,3 C 50 % 1016,7 hPa 0,0 l/m 6,7 km/h N-NO 8,5 C 18,9 C 17,7 km/h
21.06.2009 13:00 19,5 C 47 % 1016,2 hPa 0,0 l/m 6,6 km/h N-NO 7,9 C 19,2 C 16,9 km/h
21.06.2009 14:00 19,3 C 51 % 1015,8 hPa 0,0 l/m 4,9 km/h N-NO 8,8 C 19,3 C 12,9 km/h
21.06.2009 15:00 19,5 C 50 % 1015,5 hPa 0,0 l/m 4,9 km/h NO 8,8 C 19,5 C 14,1 km/h
21.06.2009 16:00 19,0 C 52 % 1015,3 hPa 0,0 l/m 4,6 km/h N-NO 9,0 C 19,0 C 12,1 km/h
21.06.2009 17:00 18,6 C 54 % 1015,3 hPa 0,0 l/m 3,0 km/h N-NO 9,0 C 18,6 C 7,6 km/h
21.06.2009 18:00 17,7 C 60 % 1015,4 hPa 0,0 l/m 2,1 km/h S-SW 9,7 C 17,7 C 7,6 km/h
21.06.2009 19:00 16,6 C 64 % 1015,4 hPa 0,0 l/m 2,4 km/h NW 9,7 C 16,6 C 7,6 km/h
21.06.2009 20:00 15,7 C 66 % 1015,7 hPa 0,0 l/m 2,7 km/h N-NW 9,4 C 15,7 C 7,6 km/h
21.06.2009 21:00 15,0 C 69 % 1016,0 hPa 0,0 l/m 3,5 km/h NW 9,5 C 15,0 C 11,7 km/h
21.06.2009 22:00 14,7 C 72 % 1016,0 hPa 0,0 l/m 3,8 km/h NW 9,6 C 14,7 C 14,5 km/h
21.06.2009 23:00 14,0 C 75 % 1015,8 hPa 0,0 l/m 3,5 km/h SW 9,6 C 14,0 C 15,3 km/h
Min-Datum _ 18.06.09 18.06.09 15.06.09 - 15.06.09 - 21.06.09 18.06.09 15.06.09
_ Min-Zeit 02:15 13:30 23:45 - 03:45 - 13:15 04:00 03:45
Minimum _ 12,1 C 29 % 1010,8 hPa - 0,0 km/h - 7,6 C 11,9 C 0,0 km/h
Max-Datum _ 18.06.09 18.06.09 17.06.09 19.06.09 16.06.09 - 19.06.09 18.06.09 16.06.09
_ Max-Zeit 15:30 04:00 09:16 23:45 05:15 - 11:45 16:30 05:15
Maximum _ 31,1 C 91 % 1025,0 hPa 8,3 l/m 12,2 km/h
W
- 18,5 C 31,0 C 43,5 km/h
W-SW
Durchschnitt _ 19,2 C 69 % 1017,4 hPa #31,4 l/m 2,6 km/h NW 12,8 C 19,2 C 9,4 km/h